Time;durP1;ratioP1;P1;durP2;ratioP2;P2;SDS_P1;SDS_P2;PMS_P1;PMS_P2;Temp;Humidity;BMP_temperature;BMP_pressure;BME280_temperature;BME280_humidity;BME280_pressure;Samples;Min_cycle;Max_cycle;Signal;HPM_P1;HPM_P2
2024/01/28 00:00:20;;;;;;;4.63;1.73;;;;;;;;;;5053548;28;20197;-78
2024/01/28 00:02:51;;;;;;;6.37;1.67;;;;;;;;;;5051660;28;20193;-80
2024/01/28 00:05:24;;;;;;;5.00;1.60;;;;;;;;;;5047501;28;20735;-80
2024/01/28 00:07:52;;;;;;;4.47;1.87;;;;;;;;;;5054014;28;20200;-80
2024/01/28 00:10:19;;;;;;;5.77;1.60;;;;;;;;;;5050812;28;20666;-80
2024/01/28 00:12:46;;;;;;;4.07;1.60;;;;;;;;;;5064507;28;20351;-81
2024/01/28 00:15:13;;;;;;;3.30;1.60;;;;;;;;;;5053678;28;20217;-79
2024/01/28 00:17:45;;;;;;;3.07;1.30;;;;;;;;;;5067635;28;20258;-79
2024/01/28 00:20:15;;;;;;;3.97;1.40;;;;;;;;;;5053648;28;20280;-80
2024/01/28 00:22:41;;;;;;;4.87;1.73;;;;;;;;;;5060661;28;20275;-81
2024/01/28 00:25:11;;;;;;;4.30;1.70;;;;;;;;;;5053846;28;20190;-80
2024/01/28 00:27:37;;;;;;;4.70;1.80;;;;;;;;;;5060747;28;20213;-80
2024/01/28 00:30:04;;;;;;;3.80;1.70;;;;;;;;;;5049722;28;20212;-79
2024/01/28 00:32:33;;;;;;;5.13;1.70;;;;;;;;;;5070621;28;20196;-82
2024/01/28 00:35:07;;;;;;;4.03;1.60;;;;;;;;;;5053613;28;20202;-79
2024/01/28 00:37:36;;;;;;;4.03;1.60;;;;;;;;;;5060541;28;20209;-80
2024/01/28 00:40:09;;;;;;;4.60;1.97;;;;;;;;;;5046073;28;20194;-80
2024/01/28 00:42:36;;;;;;;4.07;2.00;;;;;;;;;;5046569;28;20741;-79
2024/01/28 00:45:03;;;;;;;6.07;1.87;;;;;;;;;;5053191;28;20189;-82
2024/01/28 00:47:30;;;;;;;4.83;1.63;;;;;;;;;;5048690;28;20214;-79
2024/01/28 00:50:02;;;;;;;4.73;1.70;;;;;;;;;;5052378;28;20204;-81
2024/01/28 00:52:32;;;;;;;5.50;1.87;;;;;;;;;;5054357;28;20714;-79
2024/01/28 00:55:03;;;;;;;4.50;1.80;;;;;;;;;;5063524;28;20199;-82
2024/01/28 00:57:29;;;;;;;4.57;1.90;;;;;;;;;;5057683;28;20192;-81
2024/01/28 00:59:59;;;;;;;4.97;1.97;;;;;;;;;;5055559;28;20243;-82
2024/01/28 01:02:28;;;;;;;3.97;1.70;;;;;;;;;;5051529;28;20268;-81
2024/01/28 01:04:56;;;;;;;5.03;1.90;;;;;;;;;;5060040;28;20219;-83
2024/01/28 01:07:25;;;;;;;5.33;1.90;;;;;;;;;;5060097;28;20204;-80
2024/01/28 01:09:52;;;;;;;3.43;1.70;;;;;;;;;;5058026;28;20194;-81
2024/01/28 01:12:19;;;;;;;6.37;2.03;;;;;;;;;;5061003;28;20198;-82
2024/01/28 01:15:01;;;;;;;5.13;2.10;;;;;;;;;;5050399;28;20231;-79
2024/01/28 01:17:28;;;;;;;4.20;1.67;;;;;;;;;;5045550;28;20286;-81
2024/01/28 01:19:54;;;;;;;5.47;1.93;;;;;;;;;;5053900;28;20225;-80
2024/01/28 01:22:21;;;;;;;4.63;1.67;;;;;;;;;;5041406;28;20281;-80
2024/01/28 01:24:50;;;;;;;5.47;2.00;;;;;;;;;;5052814;28;20201;-81
2024/01/28 01:27:19;;;;;;;2.53;1.60;;;;;;;;;;5043346;28;20679;-78
2024/01/28 01:29:55;;;;;;;3.90;1.77;;;;;;;;;;5050532;28;20193;-80
2024/01/28 01:32:25;;;;;;;4.27;1.70;;;;;;;;;;5061398;28;20197;-80
2024/01/28 01:34:51;;;;;;;4.13;1.67;;;;;;;;;;5052420;28;20189;-82
2024/01/28 01:37:18;;;;;;;3.40;1.70;;;;;;;;;;5060979;28;20217;-81
2024/01/28 01:39:50;;;;;;;4.40;1.60;;;;;;;;;;5049186;28;20247;-83
2024/01/28 01:42:18;;;;;;;3.87;1.70;;;;;;;;;;5052719;28;20201;-81
2024/01/28 01:44:47;;;;;;;3.30;1.60;;;;;;;;;;5060865;28;20197;-80
2024/01/28 01:47:15;;;;;;;4.03;2.00;;;;;;;;;;5038718;28;20193;-82
2024/01/28 01:49:43;;;;;;;5.33;1.80;;;;;;;;;;5052336;28;20204;-81
2024/01/28 01:52:20;;;;;;;4.30;1.73;;;;;;;;;;5062424;28;20244;-79
2024/01/28 01:54:47;;;;;;;6.43;1.93;;;;;;;;;;5051912;28;20219;-79
2024/01/28 01:57:22;;;;;;;3.43;1.73;;;;;;;;;;5035637;28;20213;-80
2024/01/28 01:59:49;;;;;;;4.33;1.93;;;;;;;;;;5052020;28;20268;-79
2024/01/28 02:02:21;;;;;;;3.60;1.87;;;;;;;;;;5058835;28;20255;-80
2024/01/28 02:04:47;;;;;;;2.83;1.60;;;;;;;;;;5053420;28;20275;-81
2024/01/28 02:07:15;;;;;;;5.00;2.00;;;;;;;;;;5039535;28;20196;-80
2024/01/28 02:09:42;;;;;;;4.47;1.90;;;;;;;;;;5061928;28;20220;-83
2024/01/28 02:12:10;;;;;;;4.30;1.70;;;;;;;;;;5068457;28;20213;-81
2024/01/28 02:14:39;;;;;;;4.87;1.97;;;;;;;;;;5058557;28;20574;-80
2024/01/28 02:17:09;;;;;;;3.73;2.10;;;;;;;;;;5059963;28;20210;-82
2024/01/28 02:19:38;;;;;;;5.43;1.90;;;;;;;;;;5055496;28;20194;-80
2024/01/28 02:22:11;;;;;;;3.13;1.60;;;;;;;;;;5051577;28;20213;-79
2024/01/28 02:24:39;;;;;;;2.70;1.30;;;;;;;;;;5048786;28;20201;-83
2024/01/28 02:27:12;;;;;;;4.73;1.87;;;;;;;;;;5058676;28;20197;-80
2024/01/28 02:29:39;;;;;;;7.10;1.87;;;;;;;;;;5058357;28;20204;-81
2024/01/28 02:32:06;;;;;;;6.90;2.00;;;;;;;;;;5047833;28;20186;-79
2024/01/28 02:34:32;;;;;;;4.87;2.10;;;;;;;;;;5051394;28;20185;-82
2024/01/28 02:37:00;;;;;;;3.87;1.77;;;;;;;;;;5049702;28;20216;-80
2024/01/28 02:39:27;;;;;;;3.93;1.60;;;;;;;;;;5051307;28;20255;-80
2024/01/28 02:41:56;;;;;;;4.23;1.60;;;;;;;;;;5051471;28;20205;-80
2024/01/28 02:44:24;;;;;;;4.33;1.90;;;;;;;;;;5051243;28;20194;-81
2024/01/28 02:46:50;;;;;;;5.53;1.83;;;;;;;;;;5040792;28;20311;-79
2024/01/28 02:49:24;;;;;;;3.90;2.07;;;;;;;;;;5052897;28;20969;-80
2024/01/28 02:51:51;;;;;;;4.47;1.70;;;;;;;;;;5054601;28;20204;-82
2024/01/28 02:54:22;;;;;;;5.10;1.90;;;;;;;;;;5037961;28;20214;-80
2024/01/28 02:57:00;;;;;;;3.93;1.77;;;;;;;;;;5056982;28;20223;-79
2024/01/28 02:59:28;;;;;;;2.80;1.70;;;;;;;;;;5050896;28;20189;-82
2024/01/28 03:01:58;;;;;;;5.80;1.90;;;;;;;;;;5059049;28;20205;-82
2024/01/28 03:04:29;;;;;;;4.33;1.70;;;;;;;;;;5053259;28;20202;-78
2024/01/28 03:07:00;;;;;;;7.90;1.83;;;;;;;;;;5053254;28;20198;-81
2024/01/28 03:09:29;;;;;;;5.20;2.20;;;;;;;;;;5040880;28;20581;-83
2024/01/28 03:11:56;;;;;;;3.50;1.70;;;;;;;;;;5050454;28;20202;-80
2024/01/28 03:14:22;;;;;;;2.90;2.00;;;;;;;;;;5055820;28;20631;-81
2024/01/28 03:16:49;;;;;;;3.50;1.80;;;;;;;;;;5050462;28;20210;-80
2024/01/28 03:19:16;;;;;;;4.23;1.97;;;;;;;;;;5055747;28;20280;-79
2024/01/28 03:21:46;;;;;;;6.73;2.10;;;;;;;;;;5050205;28;20232;-79
2024/01/28 03:24:13;;;;;;;4.00;1.80;;;;;;;;;;5056172;28;20192;-79
2024/01/28 03:26:42;;;;;;;4.80;2.10;;;;;;;;;;5031449;28;20567;-79
2024/01/28 03:29:08;;;;;;;4.80;1.90;;;;;;;;;;5032964;28;20200;-81
2024/01/28 03:31:38;;;;;;;3.80;2.07;;;;;;;;;;5053611;28;20288;-79
2024/01/28 03:34:05;;;;;;;3.97;2.37;;;;;;;;;;5054535;28;20252;-80
2024/01/28 03:36:32;;;;;;;4.40;2.53;;;;;;;;;;5053727;28;20213;-82
2024/01/28 03:39:02;;;;;;;7.30;2.50;;;;;;;;;;5059112;28;20197;-80
2024/01/28 03:41:39;;;;;;;5.00;2.30;;;;;;;;;;5055611;28;20189;-79
2024/01/28 03:44:08;;;;;;;5.23;2.23;;;;;;;;;;5035672;28;20201;-81
2024/01/28 03:46:35;;;;;;;4.00;2.10;;;;;;;;;;5056352;28;20264;-80
2024/01/28 03:49:06;;;;;;;5.77;2.17;;;;;;;;;;5039879;28;20200;-79
2024/01/28 03:51:33;;;;;;;8.30;2.00;;;;;;;;;;5060061;28;20209;-80
2024/01/28 03:53:59;;;;;;;5.60;1.70;;;;;;;;;;5053690;28;20560;-79
2024/01/28 03:56:26;;;;;;;4.80;1.80;;;;;;;;;;5052687;28;20705;-80
2024/01/28 03:58:53;;;;;;;4.93;1.97;;;;;;;;;;5035151;28;20190;-80
2024/01/28 04:01:29;;;;;;;7.47;2.00;;;;;;;;;;5038354;28;20220;-81
2024/01/28 04:03:59;;;;;;;4.97;1.57;;;;;;;;;;5062043;28;20589;-79
2024/01/28 04:06:29;;;;;;;4.20;1.80;;;;;;;;;;5053117;28;20205;-80
2024/01/28 04:08:56;;;;;;;5.67;1.73;;;;;;;;;;5062291;28;20207;-80
2024/01/28 04:11:43;;;;;;;5.87;1.90;;;;;;;;;;5053477;28;20216;-78
2024/01/28 04:14:10;;;;;;;5.40;2.07;;;;;;;;;;5052692;28;20276;-81
2024/01/28 04:16:37;;;;;;;4.10;2.07;;;;;;;;;;5053512;28;20220;-80
2024/01/28 04:19:05;;;;;;;4.97;1.80;;;;;;;;;;5053504;28;20272;-81
2024/01/28 04:21:32;;;;;;;3.13;1.77;;;;;;;;;;5055703;28;20208;-81
2024/01/28 04:24:00;;;;;;;4.37;2.00;;;;;;;;;;5073101;28;20284;-82
2024/01/28 04:26:30;;;;;;;4.93;2.13;;;;;;;;;;5068986;28;20189;-81
2024/01/28 04:28:58;;;;;;;5.33;1.93;;;;;;;;;;5053601;28;20201;-79
2024/01/28 04:31:29;;;;;;;5.03;1.90;;;;;;;;;;5054552;28;20204;-81
2024/01/28 04:34:10;;;;;;;4.67;2.30;;;;;;;;;;5050683;28;20237;-79
2024/01/28 04:36:37;;;;;;;4.70;2.10;;;;;;;;;;5049546;28;20205;-80
2024/01/28 04:39:05;;;;;;;7.07;2.27;;;;;;;;;;5054056;28;20206;-80
2024/01/28 04:41:32;;;;;;;7.00;2.60;;;;;;;;;;5053759;28;20428;-80
2024/01/28 04:43:59;;;;;;;5.63;2.40;;;;;;;;;;5037878;28;20190;-79
2024/01/28 04:46:25;;;;;;;6.30;2.10;;;;;;;;;;5041705;28;20236;-82
2024/01/28 04:48:54;;;;;;;6.47;2.13;;;;;;;;;;5036571;28;20201;-80
2024/01/28 04:51:23;;;;;;;4.60;1.70;;;;;;;;;;5052155;28;20654;-78
2024/01/28 04:53:55;;;;;;;4.80;1.83;;;;;;;;;;5037672;28;20253;-81
2024/01/28 04:56:23;;;;;;;5.97;2.30;;;;;;;;;;5036133;28;20216;-80
2024/01/28 04:58:53;;;;;;;4.10;1.90;;;;;;;;;;5032322;28;20264;-80
2024/01/28 05:01:23;;;;;;;5.73;2.37;;;;;;;;;;5033931;28;20194;-80
2024/01/28 05:03:50;;;;;;;4.47;1.80;;;;;;;;;;5015391;28;20194;-81
2024/01/28 05:06:20;;;;;;;4.67;2.27;;;;;;;;;;5037572;28;20255;-79
2024/01/28 05:08:52;;;;;;;3.93;1.87;;;;;;;;;;5052937;28;20205;-80
2024/01/28 05:11:19;;;;;;;5.33;1.80;;;;;;;;;;5038976;28;20280;-79
2024/01/28 05:13:46;;;;;;;3.60;2.00;;;;;;;;;;5032877;28;20248;-81
2024/01/28 05:16:12;;;;;;;6.87;2.10;;;;;;;;;;5039862;28;20748;-80
2024/01/28 05:18:41;;;;;;;4.77;2.03;;;;;;;;;;5032066;28;20218;-83
2024/01/28 05:21:08;;;;;;;3.97;1.90;;;;;;;;;;5041549;28;20658;-80
2024/01/28 05:23:40;;;;;;;4.53;2.20;;;;;;;;;;5043405;28;20245;-79
2024/01/28 05:26:08;;;;;;;5.93;2.10;;;;;;;;;;5015805;28;20261;-80
2024/01/28 05:28:38;;;;;;;3.90;2.00;;;;;;;;;;5033598;28;20255;-80
2024/01/28 05:31:05;;;;;;;6.03;2.23;;;;;;;;;;5033805;28;20213;-80
2024/01/28 05:33:37;;;;;;;4.77;2.60;;;;;;;;;;5033128;28;20193;-81
2024/01/28 05:36:14;;;;;;;6.43;2.80;;;;;;;;;;5031717;28;20191;-80
2024/01/28 05:38:42;;;;;;;5.73;2.90;;;;;;;;;;5013000;28;20216;-82
2024/01/28 05:41:09;;;;;;;5.57;3.20;;;;;;;;;;5038118;28;20301;-79
2024/01/28 05:43:36;;;;;;;8.53;3.07;;;;;;;;;;5032138;28;20198;-79
2024/01/28 05:46:04;;;;;;;4.43;2.60;;;;;;;;;;5034951;28;20213;-78
2024/01/28 05:48:32;;;;;;;5.13;2.67;;;;;;;;;;5043780;28;20200;-82
2024/01/28 05:51:03;;;;;;;8.00;2.73;;;;;;;;;;5042603;28;20202;-81
2024/01/28 05:53:29;;;;;;;4.80;2.53;;;;;;;;;;5027841;28;20310;-80
2024/01/28 05:55:59;;;;;;;7.60;2.80;;;;;;;;;;5007395;28;20202;-80
2024/01/28 05:58:32;;;;;;;6.40;2.50;;;;;;;;;;5023975;28;20214;-80
2024/01/28 06:01:06;;;;;;;5.63;2.60;;;;;;;;;;5006416;28;20199;-79
2024/01/28 06:03:34;;;;;;;4.17;2.40;;;;;;;;;;5032761;28;20225;-80
2024/01/28 06:06:01;;;;;;;5.97;2.50;;;;;;;;;;5010335;28;20299;-80
2024/01/28 06:08:29;;;;;;;4.77;2.30;;;;;;;;;;5015026;28;20190;-78
2024/01/28 06:10:56;;;;;;;5.23;2.40;;;;;;;;;;5036719;28;20198;-84
2024/01/28 06:13:25;;;;;;;4.47;2.20;;;;;;;;;;5031186;28;20194;-81
2024/01/28 06:15:52;;;;;;;5.67;2.50;;;;;;;;;;5039114;28;20190;-80
2024/01/28 06:18:20;;;;;;;6.77;2.70;;;;;;;;;;5032349;28;20281;-83
2024/01/28 06:20:50;;;;;;;7.73;2.63;;;;;;;;;;5038468;28;20190;-81
2024/01/28 06:23:17;;;;;;;6.67;2.70;;;;;;;;;;5040870;28;20658;-82
2024/01/28 06:25:44;;;;;;;7.80;2.97;;;;;;;;;;5030935;28;20190;-79
2024/01/28 06:28:12;;;;;;;5.37;2.67;;;;;;;;;;5013102;28;20198;-79
2024/01/28 06:30:41;;;;;;;5.50;2.80;;;;;;;;;;5018375;28;20201;-80
2024/01/28 06:33:10;;;;;;;4.80;2.27;;;;;;;;;;5031986;28;20197;-78
2024/01/28 06:35:37;;;;;;;7.53;2.50;;;;;;;;;;5019610;28;20586;-79
2024/01/28 06:38:04;;;;;;;6.13;2.50;;;;;;;;;;5035641;28;20279;-79
2024/01/28 06:40:35;;;;;;;4.83;2.40;;;;;;;;;;5027249;28;20698;-79
2024/01/28 06:43:02;;;;;;;6.33;2.33;;;;;;;;;;5034611;28;20201;-82
2024/01/28 06:45:32;;;;;;;6.03;2.30;;;;;;;;;;5031991;28;20192;-82
2024/01/28 06:48:04;;;;;;;6.70;2.40;;;;;;;;;;5036320;28;20198;-80
2024/01/28 06:50:34;;;;;;;4.27;2.47;;;;;;;;;;5032912;28;20206;-80
2024/01/28 06:53:03;;;;;;;5.37;2.10;;;;;;;;;;5035211;28;20236;-82
2024/01/28 06:55:31;;;;;;;4.60;2.77;;;;;;;;;;5031159;28;20197;-80
2024/01/28 06:57:58;;;;;;;6.97;2.80;;;;;;;;;;5002911;28;20697;-80
2024/01/28 07:00:32;;;;;;;5.23;2.80;;;;;;;;;;5034030;28;20202;-80
2024/01/28 07:03:00;;;;;;;5.00;2.33;;;;;;;;;;5017802;28;20332;-81
2024/01/28 07:05:28;;;;;;;6.33;2.70;;;;;;;;;;5030497;28;20202;-81
2024/01/28 07:07:54;;;;;;;5.90;3.30;;;;;;;;;;5031433;28;20282;-80
2024/01/28 07:10:25;;;;;;;6.53;4.10;;;;;;;;;;5032278;28;20241;-81
2024/01/28 07:12:54;;;;;;;8.17;4.03;;;;;;;;;;5031969;28;20209;-81
2024/01/28 07:15:21;;;;;;;6.83;3.97;;;;;;;;;;5013768;28;20276;-80
2024/01/28 07:17:48;;;;;;;6.37;4.17;;;;;;;;;;5031783;28;20213;-82
2024/01/28 07:20:16;;;;;;;7.47;4.17;;;;;;;;;;5012986;28;20606;-81
2024/01/28 07:22:43;;;;;;;9.77;5.50;;;;;;;;;;5034481;28;20195;-79
2024/01/28 07:25:15;;;;;;;8.40;4.57;;;;;;;;;;5017702;28;20187;-79
2024/01/28 07:27:43;;;;;;;7.30;4.10;;;;;;;;;;4999186;28;20715;-81
2024/01/28 07:30:15;;;;;;;9.07;4.40;;;;;;;;;;5031499;28;20201;-82
2024/01/28 07:32:54;;;;;;;7.47;3.50;;;;;;;;;;5031377;28;20229;-79
2024/01/28 07:35:21;;;;;;;5.13;3.70;;;;;;;;;;5013655;28;20268;-80
2024/01/28 07:37:50;;;;;;;5.10;3.50;;;;;;;;;;5011241;28;20655;-78
2024/01/28 07:40:27;;;;;;;8.73;4.70;;;;;;;;;;5010603;28;20215;-78
2024/01/28 07:42:56;;;;;;;9.43;4.73;;;;;;;;;;5012151;28;20198;-78
2024/01/28 07:45:23;;;;;;;8.93;5.03;;;;;;;;;;5030022;28;20615;-80
2024/01/28 07:47:54;;;;;;;10.20;5.67;;;;;;;;;;5035570;28;20201;-81
2024/01/28 07:50:20;;;;;;;9.87;5.43;;;;;;;;;;5032169;28;20216;-81
2024/01/28 07:52:48;;;;;;;12.67;8.83;;;;;;;;;;5042960;28;20249;-79
2024/01/28 07:55:16;;;;;;;8.77;6.47;;;;;;;;;;5054458;28;20190;-77
2024/01/28 07:57:45;;;;;;;10.83;6.20;;;;;;;;;;5057323;28;20228;-81
2024/01/28 08:00:12;;;;;;;12.50;5.87;;;;;;;;;;5045205;28;20203;-80
2024/01/28 08:02:42;;;;;;;9.53;5.13;;;;;;;;;;5032276;28;20193;-81
2024/01/28 08:05:10;;;;;;;9.63;5.37;;;;;;;;;;5034859;28;20670;-79
2024/01/28 08:07:44;;;;;;;7.57;4.77;;;;;;;;;;5036209;28;20221;-80
2024/01/28 08:10:13;;;;;;;6.97;5.07;;;;;;;;;;5048665;28;20197;-80
2024/01/28 08:12:41;;;;;;;11.47;4.67;;;;;;;;;;5059941;28;20193;-79
2024/01/28 08:15:09;;;;;;;8.90;4.60;;;;;;;;;;5062486;28;20190;-80
2024/01/28 08:17:39;;;;;;;10.10;5.03;;;;;;;;;;5040097;28;20220;-79
2024/01/28 08:20:07;;;;;;;7.17;5.13;;;;;;;;;;5057799;28;20653;-80
2024/01/28 08:22:37;;;;;;;7.70;4.80;;;;;;;;;;5045733;28;20697;-79
2024/01/28 08:25:13;;;;;;;10.63;5.10;;;;;;;;;;5061145;28;20197;-79
2024/01/28 08:27:44;;;;;;;6.20;3.90;;;;;;;;;;5037895;28;20189;-82
2024/01/28 08:30:14;;;;;;;9.33;3.83;;;;;;;;;;5058701;28;20197;-82
2024/01/28 08:32:43;;;;;;;6.27;3.50;;;;;;;;;;5061620;28;20200;-81
2024/01/28 08:35:13;;;;;;;6.63;3.13;;;;;;;;;;5047471;28;20198;-80
2024/01/28 08:37:40;;;;;;;7.67;3.87;;;;;;;;;;5071518;28;20208;-81
2024/01/28 08:40:10;;;;;;;7.33;3.10;;;;;;;;;;5034744;28;20295;-81
2024/01/28 08:42:39;;;;;;;6.20;3.23;;;;;;;;;;5054118;28;20193;-79
2024/01/28 08:45:16;;;;;;;5.87;3.50;;;;;;;;;;5046105;28;20200;-79
2024/01/28 08:47:48;;;;;;;7.97;4.20;;;;;;;;;;5057631;28;20192;-82
2024/01/28 08:50:23;;;;;;;8.33;3.80;;;;;;;;;;5036539;28;20196;-78
2024/01/28 08:52:51;;;;;;;5.53;3.40;;;;;;;;;;5045418;28;20226;-82
2024/01/28 08:55:18;;;;;;;7.30;3.50;;;;;;;;;;5037287;28;20259;-79
2024/01/28 08:57:45;;;;;;;5.97;3.27;;;;;;;;;;5026340;28;20221;-81
2024/01/28 09:00:12;;;;;;;7.00;3.33;;;;;;;;;;5016937;28;20260;-80
2024/01/28 09:02:40;;;;;;;7.13;3.90;;;;;;;;;;5025650;28;20198;-81
2024/01/28 09:05:08;;;;;;;8.43;3.30;;;;;;;;;;5034702;28;20197;-80
2024/01/28 09:07:35;;;;;;;5.93;3.53;;;;;;;;;;5016766;28;20216;-79
2024/01/28 09:10:05;;;;;;;6.83;3.70;;;;;;;;;;5022166;28;20193;-82
2024/01/28 09:12:32;;;;;;;5.17;3.43;;;;;;;;;;5016711;28;20211;-80
2024/01/28 09:15:00;;;;;;;6.77;3.50;;;;;;;;;;5019758;28;20194;-81
2024/01/28 09:17:27;;;;;;;4.03;2.90;;;;;;;;;;5044589;28;20217;-81
2024/01/28 09:19:56;;;;;;;8.37;3.60;;;;;;;;;;5002016;28;20241;-80
2024/01/28 09:22:25;;;;;;;7.30;3.77;;;;;;;;;;5013831;28;20278;-80
2024/01/28 09:24:53;;;;;;;9.17;4.03;;;;;;;;;;5033958;28;20187;-81
2024/01/28 09:27:23;;;;;;;8.47;3.23;;;;;;;;;;5036273;28;20241;-79
2024/01/28 09:29:50;;;;;;;6.03;3.33;;;;;;;;;;5033742;28;20201;-80
2024/01/28 09:32:23;;;;;;;5.53;3.47;;;;;;;;;;5032303;28;20190;-80
2024/01/28 09:34:50;;;;;;;5.20;3.10;;;;;;;;;;5035306;28;20186;-80
2024/01/28 09:37:19;;;;;;;5.73;3.23;;;;;;;;;;5031709;28;20214;-78
2024/01/28 09:39:57;;;;;;;5.87;3.27;;;;;;;;;;5004146;28;20199;-78
2024/01/28 09:42:30;;;;;;;5.90;2.63;;;;;;;;;;5035102;28;20213;-78
2024/01/28 09:45:07;;;;;;;7.00;3.00;;;;;;;;;;4994539;28;20202;-81
2024/01/28 09:47:36;;;;;;;7.43;3.30;;;;;;;;;;5007108;28;20193;-80
2024/01/28 09:50:11;;;;;;;6.37;3.13;;;;;;;;;;5011575;28;20204;-79
2024/01/28 09:52:38;;;;;;;4.20;2.67;;;;;;;;;;5017467;28;20236;-80
2024/01/28 09:55:07;;;;;;;8.33;2.87;;;;;;;;;;5050857;28;20271;-79
2024/01/28 09:57:36;;;;;;;5.87;3.17;;;;;;;;;;5054379;28;20193;-81
2024/01/28 10:00:04;;;;;;;7.17;2.90;;;;;;;;;;5065995;28;20194;-81
2024/01/28 10:02:41;;;;;;;5.47;2.90;;;;;;;;;;5055873;28;20276;-81
2024/01/28 10:05:12;;;;;;;5.80;3.17;;;;;;;;;;5059257;28;20213;-81
2024/01/28 10:07:40;;;;;;;6.83;2.70;;;;;;;;;;5055223;28;20198;-79
2024/01/28 10:10:13;;;;;;;12.93;6.93;;;;;;;;;;5053823;28;20244;-80
2024/01/28 10:12:49;;;;;;;12.03;8.50;;;;;;;;;;5060122;28;20728;-81
2024/01/28 10:15:17;;;;;;;6.90;3.03;;;;;;;;;;5039899;28;20232;-81
2024/01/28 10:17:48;;;;;;;5.60;3.40;;;;;;;;;;5050139;28;20196;-80
2024/01/28 10:20:25;;;;;;;5.53;2.77;;;;;;;;;;5025011;28;20756;-80
2024/01/28 10:22:55;;;;;;;7.53;2.90;;;;;;;;;;5033934;28;20231;-78
2024/01/28 10:25:22;;;;;;;6.83;2.90;;;;;;;;;;5052067;28;20567;-79
2024/01/28 10:27:55;;;;;;;6.33;3.07;;;;;;;;;;5052087;28;20197;-80
2024/01/28 10:30:22;;;;;;;7.13;3.00;;;;;;;;;;5043562;28;20692;-81
2024/01/28 10:32:55;;;;;;;5.40;2.77;;;;;;;;;;5051997;28;20193;-79
2024/01/28 10:35:25;;;;;;;7.80;3.07;;;;;;;;;;5052012;28;20209;-80
2024/01/28 10:37:59;;;;;;;6.67;3.10;;;;;;;;;;5059167;28;20213;-80
2024/01/28 10:40:31;;;;;;;4.83;3.17;;;;;;;;;;5063431;28;20204;-80
2024/01/28 10:43:03;;;;;;;9.47;3.33;;;;;;;;;;5040975;28;20185;-80
2024/01/28 10:45:35;;;;;;;6.53;3.20;;;;;;;;;;5060282;28;20225;-80
2024/01/28 10:48:05;;;;;;;7.33;3.57;;;;;;;;;;5051401;28;20197;-79
2024/01/28 10:50:34;;;;;;;4.73;3.00;;;;;;;;;;5051031;28;20622;-79
2024/01/28 10:53:01;;;;;;;6.23;3.17;;;;;;;;;;5050295;28;20316;-79
2024/01/28 10:55:31;;;;;;;5.10;3.07;;;;;;;;;;5051579;28;20213;-80
2024/01/28 10:58:00;;;;;;;7.10;3.10;;;;;;;;;;5045485;28;20220;-79
2024/01/28 11:00:28;;;;;;;5.77;3.03;;;;;;;;;;5032911;28;20190;-80
2024/01/28 11:03:00;;;;;;;5.93;3.47;;;;;;;;;;5047144;28;20204;-84
2024/01/28 11:05:27;;;;;;;6.33;3.53;;;;;;;;;;5050666;28;20312;-81
2024/01/28 11:07:59;;;;;;;8.33;3.60;;;;;;;;;;5020175;28;20194;-82
2024/01/28 11:10:29;;;;;;;7.47;3.70;;;;;;;;;;5041545;28;20185;-81
2024/01/28 11:12:59;;;;;;;6.10;2.80;;;;;;;;;;5034367;28;20185;-80
2024/01/28 11:15:28;;;;;;;7.03;3.30;;;;;;;;;;5036569;28;20199;-78
2024/01/28 11:17:55;;;;;;;6.57;3.20;;;;;;;;;;5051487;28;20268;-82
2024/01/28 11:20:30;;;;;;;4.73;3.10;;;;;;;;;;5033962;28;20264;-80
2024/01/28 11:23:13;;;;;;;7.40;3.17;;;;;;;;;;5051899;28;20253;-81
2024/01/28 11:25:40;;;;;;;6.83;3.30;;;;;;;;;;5051823;28;20222;-80
2024/01/28 11:28:07;;;;;;;6.13;3.20;;;;;;;;;;5013911;28;20206;-82
2024/01/28 11:30:37;;;;;;;6.37;3.30;;;;;;;;;;5050350;28;20205;-80
2024/01/28 11:33:16;;;;;;;6.60;3.17;;;;;;;;;;5051063;28;20199;-80
2024/01/28 11:35:46;;;;;;;7.87;2.97;;;;;;;;;;5048106;28;20190;-79
2024/01/28 11:38:19;;;;;;;8.20;3.17;;;;;;;;;;5054202;28;20213;-80
2024/01/28 11:40:55;;;;;;;7.03;3.07;;;;;;;;;;5034827;28;20192;-81
2024/01/28 11:43:24;;;;;;;5.13;2.70;;;;;;;;;;5051500;28;20216;-79
2024/01/28 11:45:51;;;;;;;5.57;2.63;;;;;;;;;;5055965;28;20193;-80
2024/01/28 11:48:21;;;;;;;7.37;2.80;;;;;;;;;;5063103;28;20302;-79
2024/01/28 11:50:49;;;;;;;5.53;2.57;;;;;;;;;;5051653;28;20272;-80
2024/01/28 11:53:16;;;;;;;6.40;2.50;;;;;;;;;;5051001;28;20243;-80
2024/01/28 11:55:49;;;;;;;6.13;2.97;;;;;;;;;;5051436;28;20202;-80
2024/01/28 11:58:18;;;;;;;4.73;2.40;;;;;;;;;;5050843;28;20205;-79
2024/01/28 12:00:50;;;;;;;5.80;2.40;;;;;;;;;;5034417;28;20201;-78
2024/01/28 12:03:21;;;;;;;4.93;2.60;;;;;;;;;;5033286;28;20275;-82
2024/01/28 12:05:53;;;;;;;6.07;2.37;;;;;;;;;;5048203;28;20224;-78
2024/01/28 12:08:25;;;;;;;5.60;2.73;;;;;;;;;;5048023;28;20211;-79
2024/01/28 12:10:57;;;;;;;4.77;2.40;;;;;;;;;;5054951;28;20192;-78
2024/01/28 12:13:26;;;;;;;5.37;2.50;;;;;;;;;;5054437;28;20219;-81
2024/01/28 12:15:56;;;;;;;3.97;2.20;;;;;;;;;;5037890;28;20731;-79
2024/01/28 12:18:23;;;;;;;5.93;2.47;;;;;;;;;;5054182;28;20224;-84
2024/01/28 12:20:51;;;;;;;6.57;2.97;;;;;;;;;;5038290;28;20734;-80
2024/01/28 12:23:19;;;;;;;5.47;2.93;;;;;;;;;;5054554;28;20197;-80
2024/01/28 12:25:46;;;;;;;5.93;2.97;;;;;;;;;;5038618;28;20224;-79
2024/01/28 12:28:15;;;;;;;7.90;2.30;;;;;;;;;;5065651;28;20681;-78
2024/01/28 12:30:45;;;;;;;5.33;3.03;;;;;;;;;;5037221;28;20209;-78
2024/01/28 12:33:13;;;;;;;7.50;3.50;;;;;;;;;;5029655;28;20309;-80
2024/01/28 12:35:48;;;;;;;6.83;3.37;;;;;;;;;;5035911;28;20262;-78
2024/01/28 12:38:32;;;;;;;7.97;3.30;;;;;;;;;;5034504;28;20217;-78
2024/01/28 12:40:59;;;;;;;7.50;3.33;;;;;;;;;;5052555;28;20273;-81
2024/01/28 12:43:26;;;;;;;7.90;3.50;;;;;;;;;;5052082;28;20196;-79
2024/01/28 12:45:58;;;;;;;5.07;3.17;;;;;;;;;;5054109;28;20227;-80
2024/01/28 12:48:28;;;;;;;6.90;3.70;;;;;;;;;;5047279;28;20256;-79
2024/01/28 12:51:20;;;;;;;7.47;3.60;;;;;;;;;;5044706;28;20201;-78
2024/01/28 12:53:51;;;;;;;5.83;3.40;;;;;;;;;;5052111;28;20335;-78
2024/01/28 12:56:19;;;;;;;8.27;3.40;;;;;;;;;;5034343;28;20218;-80
2024/01/28 12:58:46;;;;;;;7.77;3.87;;;;;;;;;;5053384;28;20685;-79
2024/01/28 13:01:16;;;;;;;5.13;3.20;;;;;;;;;;5020546;28;20200;-79
2024/01/28 13:03:47;;;;;;;5.97;3.37;;;;;;;;;;5062827;28;20193;-81
2024/01/28 13:06:14;;;;;;;6.90;3.10;;;;;;;;;;5040094;28;20212;-78
2024/01/28 13:08:43;;;;;;;6.83;3.10;;;;;;;;;;5036001;28;20225;-79
2024/01/28 13:11:10;;;;;;;5.13;3.03;;;;;;;;;;5021143;28;20197;-77
2024/01/28 13:13:38;;;;;;;7.57;3.30;;;;;;;;;;5037958;28;20288;-80
2024/01/28 13:16:05;;;;;;;6.17;2.90;;;;;;;;;;5031985;28;20225;-80
2024/01/28 13:18:40;;;;;;;5.53;2.83;;;;;;;;;;5051256;28;20221;-78
2024/01/28 13:21:08;;;;;;;6.37;2.90;;;;;;;;;;5046802;28;20186;-80
2024/01/28 13:23:37;;;;;;;6.53;3.10;;;;;;;;;;5031685;28;20191;-80
2024/01/28 13:26:05;;;;;;;5.90;3.00;;;;;;;;;;5051628;28;20732;-80
2024/01/28 13:28:33;;;;;;;7.30;2.90;;;;;;;;;;5052550;28;20697;-81
2024/01/28 13:31:01;;;;;;;4.67;2.63;;;;;;;;;;5043537;28;20190;-80
2024/01/28 13:33:34;;;;;;;5.40;2.60;;;;;;;;;;5053489;28;20203;-82
2024/01/28 13:36:03;;;;;;;3.70;2.50;;;;;;;;;;5034737;28;20259;-80
2024/01/28 13:38:30;;;;;;;4.63;2.47;;;;;;;;;;5052198;28;20258;-80
2024/01/28 13:40:58;;;;;;;5.33;2.60;;;;;;;;;;5033887;28;20193;-80
2024/01/28 13:43:24;;;;;;;6.60;2.57;;;;;;;;;;5033400;28;20203;-79
2024/01/28 13:46:01;;;;;;;9.00;3.13;;;;;;;;;;5052757;28;20235;-81
2024/01/28 13:48:29;;;;;;;7.00;2.80;;;;;;;;;;5033863;28;20202;-79
2024/01/28 13:50:56;;;;;;;6.67;2.63;;;;;;;;;;5034347;28;20204;-78
2024/01/28 13:53:24;;;;;;;4.60;2.50;;;;;;;;;;5044448;28;20261;-80
2024/01/28 13:55:51;;;;;;;5.77;3.03;;;;;;;;;;5041144;28;20213;-80
2024/01/28 13:58:22;;;;;;;5.70;3.07;;;;;;;;;;5051911;28;20197;-82
2024/01/28 14:00:49;;;;;;;6.37;2.70;;;;;;;;;;5018740;28;20220;-80
2024/01/28 14:03:16;;;;;;;6.60;2.97;;;;;;;;;;5041093;28;20197;-79
2024/01/28 14:05:44;;;;;;;7.33;3.00;;;;;;;;;;5002187;28;20209;-80
2024/01/28 14:08:12;;;;;;;5.90;2.60;;;;;;;;;;5015763;28;20190;-81
2024/01/28 14:10:39;;;;;;;6.43;2.70;;;;;;;;;;5030448;28;20721;-79
2024/01/28 14:13:17;;;;;;;6.87;2.87;;;;;;;;;;5017348;28;20213;-80
2024/01/28 14:15:46;;;;;;;5.27;2.37;;;;;;;;;;5021465;28;20199;-80
2024/01/28 14:18:14;;;;;;;7.03;2.83;;;;;;;;;;5033099;28;20204;-79
2024/01/28 14:20:44;;;;;;;5.30;2.30;;;;;;;;;;5013192;28;20761;-79
2024/01/28 14:23:11;;;;;;;6.33;2.47;;;;;;;;;;5038680;28;20209;-81
2024/01/28 14:25:38;;;;;;;6.10;2.93;;;;;;;;;;5041548;28;20190;-80
2024/01/28 14:28:05;;;;;;;5.90;3.20;;;;;;;;;;5032245;28;20198;-80
2024/01/28 14:30:32;;;;;;;5.80;2.67;;;;;;;;;;5032150;28;20303;-80
2024/01/28 14:32:59;;;;;;;5.33;2.67;;;;;;;;;;5013555;28;20202;-79
2024/01/28 14:35:28;;;;;;;5.03;2.60;;;;;;;;;;5043601;28;20217;-79
2024/01/28 14:37:54;;;;;;;5.57;2.70;;;;;;;;;;5039738;28;20204;-80
2024/01/28 14:40:24;;;;;;;6.93;3.33;;;;;;;;;;5038517;28;20204;-78
2024/01/28 14:42:54;;;;;;;8.33;4.40;;;;;;;;;;5031299;28;20204;-80
2024/01/28 14:45:22;;;;;;;5.90;3.40;;;;;;;;;;5034394;28;20197;-79
2024/01/28 14:47:51;;;;;;;5.90;2.90;;;;;;;;;;5034578;28;20199;-80
2024/01/28 14:50:18;;;;;;;4.20;2.60;;;;;;;;;;5033054;28;20194;-80
2024/01/28 14:52:48;;;;;;;5.50;2.90;;;;;;;;;;5026141;28;20230;-80
2024/01/28 14:55:14;;;;;;;4.23;2.83;;;;;;;;;;5037997;28;20216;-80